createdAt,value
2018-09-06T00:00:03.779Z,794.97
2018-09-06T00:00:07.579Z,794.95
2018-09-06T00:00:11.699Z,794.94
2018-09-06T00:00:15.921Z,794.96
2018-09-06T00:00:20.151Z,794.95
2018-09-06T00:00:24.276Z,794.9
2018-09-06T00:00:28.397Z,794.96
2018-09-06T00:00:32.620Z,794.94
2018-09-06T00:00:36.737Z,794.95
2018-09-06T00:00:40.855Z,794.91
2018-09-06T00:00:44.871Z,794.96
2018-09-06T00:00:48.986Z,794.94
2018-09-06T00:00:53.315Z,794.96
2018-09-06T00:00:57.548Z,794.97
2018-09-06T00:01:01.461Z,794.92
2018-09-06T00:01:05.682Z,794.9
2018-09-06T00:01:10.018Z,794.91
2018-09-06T00:01:14.241Z,794.91
2018-09-06T00:01:18.360Z,794.93
2018-09-06T00:01:22.484Z,794.97
2018-09-06T00:01:26.714Z,794.99
2018-09-06T00:01:30.942Z,794.96
2018-09-06T00:01:35.281Z,794.91
2018-09-06T00:01:39.403Z,794.92
2018-09-06T00:01:43.632Z,794.89
2018-09-06T00:01:47.864Z,794.95
2018-09-06T00:01:51.986Z,794.89
2018-09-06T00:01:56.325Z,794.92
2018-09-06T00:02:00.335Z,794.92
2018-09-06T00:02:04.347Z,794.95
2018-09-06T00:02:08.361Z,794.93
2018-09-06T00:02:12.587Z,794.91
2018-09-06T00:02:16.813Z,794.94
2018-09-06T00:02:21.137Z,794.93
2018-09-06T00:02:25.360Z,794.93
2018-09-06T00:02:29.581Z,794.95
2018-09-06T00:02:33.591Z,794.93
2018-09-06T00:02:37.609Z,794.92
2018-09-06T00:02:41.880Z,794.9
2018-09-06T00:02:45.795Z,794.9
2018-09-06T00:02:49.918Z,794.9
2018-09-06T00:02:54.037Z,794.93
2018-09-06T00:02:58.151Z,794.91
2018-09-06T00:03:02.267Z,794.92
2018-09-06T00:03:06.388Z,794.91
2018-09-06T00:03:10.731Z,794.91
2018-09-06T00:03:15.065Z,794.89
2018-09-06T00:03:19.463Z,794.88
2018-09-06T00:03:23.586Z,794.92
2018-09-06T00:03:27.915Z,794.92
2018-09-06T00:03:32.142Z,794.94
2018-09-06T00:03:36.368Z,794.9
2018-09-06T00:03:40.491Z,794.89
2018-09-06T00:03:44.725Z,794.85
2018-09-06T00:03:48.841Z,794.88
2018-09-06T00:03:52.956Z,794.9
2018-09-06T00:03:57.076Z,794.9
2018-09-06T00:04:01.478Z,794.95
2018-09-06T00:04:05.490Z,794.92
2018-09-06T00:04:09.858Z,794.91
2018-09-06T00:04:14.080Z,794.89
2018-09-06T00:04:18.314Z,794.91
2018-09-06T00:04:22.645Z,794.91
2018-09-06T00:04:26.764Z,794.92
2018-09-06T00:04:30.994Z,794.92
2018-09-06T00:04:35.216Z,794.93
2018-09-06T00:04:39.435Z,794.89
2018-09-06T00:04:43.802Z,794.92
2018-09-06T00:04:48.043Z,794.92
2018-09-06T00:04:52.397Z,794.96
2018-09-06T00:04:57.136Z,794.96
2018-09-06T00:05:02.362Z,794.9
2018-09-06T00:05:06.628Z,794.95
2018-09-06T00:05:10.856Z,794.94
2018-09-06T00:05:15.190Z,794.95
2018-09-06T00:05:19.524Z,794.92
2018-09-06T00:05:23.751Z,794.92
2018-09-06T00:05:27.870Z,794.98
2018-09-06T00:05:31.887Z,795
2018-09-06T00:05:36.111Z,794.95
2018-09-06T00:05:40.336Z,794.96
2018-09-06T00:05:44.676Z,795
2018-09-06T00:05:49.013Z,794.98
2018-09-06T00:05:53.248Z,794.96
2018-09-06T00:05:57.579Z,794.99
2018-09-06T00:06:01.700Z,794.99
2018-09-06T00:06:05.936Z,794.93
2018-09-06T00:06:10.273Z,794.95
2018-09-06T00:06:14.494Z,794.98
2018-09-06T00:06:18.718Z,794.99
2018-09-06T00:06:23.057Z,795
2018-09-06T00:06:27.288Z,795.02
2018-09-06T00:06:31.300Z,794.99
2018-09-06T00:06:35.422Z,794.98
2018-09-06T00:06:39.552Z,794.99
2018-09-06T00:06:43.783Z,795
2018-09-06T00:06:48.009Z,794.94
2018-09-06T00:06:52.239Z,794.97
2018-09-06T00:06:56.359Z,795.01
2018-09-06T00:07:00.370Z,794.99
2018-09-06T00:07:04.486Z,795.02
2018-09-06T00:07:08.602Z,795.01
2018-09-06T00:07:12.928Z,795
2018-09-06T00:07:16.936Z,794.98
2018-09-06T00:07:21.269Z,794.96
2018-09-06T00:07:25.595Z,795.03
2018-09-06T00:07:29.718Z,794.98
2018-09-06T00:07:33.837Z,795.04
2018-09-06T00:07:37.958Z,795.03
2018-09-06T00:07:41.863Z,795
2018-09-06T00:07:46.085Z,795.03
2018-09-06T00:07:50.209Z,795.03
2018-09-06T00:07:54.008Z,795.02
2018-09-06T00:07:58.232Z,795.03
2018-09-06T00:08:02.555Z,795.05
2018-09-06T00:08:06.568Z,795.05
2018-09-06T00:08:10.687Z,795.05
2018-09-06T00:08:15.020Z,795.05
2018-09-06T00:08:19.356Z,795.03
2018-09-06T00:08:23.584Z,795.02
2018-09-06T00:08:27.806Z,795.04
2018-09-06T00:08:32.040Z,795.07
2018-09-06T00:08:36.368Z,795.05
2018-09-06T00:08:40.704Z,795.05
2018-09-06T00:08:45.037Z,795.06
2018-09-06T00:08:49.374Z,795.08
2018-09-06T00:08:53.597Z,795.09
2018-09-06T00:08:57.960Z,795.05
2018-09-06T00:09:02.181Z,795.1
2018-09-06T00:09:06.400Z,795.08
2018-09-06T00:09:10.727Z,795.12
2018-09-06T00:09:14.850Z,795.05
2018-09-06T00:09:18.861Z,795.07
2018-09-06T00:09:23.195Z,795.08
2018-09-06T00:09:27.447Z,795.12
2018-09-06T00:09:31.683Z,795.09
2018-09-06T00:09:35.905Z,795.15
2018-09-06T00:09:39.922Z,795.16
2018-09-06T00:09:44.144Z,795.14
2018-09-06T00:09:48.156Z,795.13
2018-09-06T00:09:52.489Z,795.13
2018-09-06T00:09:56.609Z,795.16
2018-09-06T00:10:00.628Z,795.18
2018-09-06T00:10:05.001Z,795.17
2018-09-06T00:10:09.237Z,795.15
2018-09-06T00:10:13.353Z,795.11
2018-09-06T00:10:17.687Z,795.17
2018-09-06T00:10:21.803Z,795.16
2018-09-06T00:10:26.128Z,795.17
2018-09-06T00:10:30.398Z,795.18
2018-09-06T00:10:34.632Z,795.19
2018-09-06T00:10:38.763Z,795.2
2018-09-06T00:10:42.894Z,795.2
2018-09-06T00:10:47.236Z,795.19
2018-09-06T00:10:51.562Z,795.19
2018-09-06T00:10:55.841Z,795.21
2018-09-06T00:11:00.060Z,795.2
2018-09-06T00:11:04.225Z,795.2
2018-09-06T00:11:08.570Z,795.2
2018-09-06T00:11:12.802Z,795.23
2018-09-06T00:11:17.023Z,795.22
2018-09-06T00:11:21.143Z,795.21
2018-09-06T00:11:25.370Z,795.22
2018-09-06T00:11:29.705Z,795.22
2018-09-06T00:11:33.818Z,795.27
2018-09-06T00:11:37.942Z,795.22
2018-09-06T00:11:42.058Z,795.25
2018-09-06T00:11:46.173Z,795.23
2018-09-06T00:11:50.397Z,795.27
2018-09-06T00:11:54.517Z,795.25
2018-09-06T00:11:58.845Z,795.22
2018-09-06T00:12:03.012Z,795.28
2018-09-06T00:12:07.240Z,795.24
2018-09-06T00:12:11.572Z,795.24
2018-09-06T00:12:15.919Z,795.26
2018-09-06T00:12:20.248Z,795.25
2018-09-06T00:12:24.478Z,795.29
2018-09-06T00:12:28.601Z,795.26
2018-09-06T00:12:32.723Z,795.3
2018-09-06T00:12:36.735Z,795.27
2018-09-06T00:12:41.080Z,795.28
2018-09-06T00:12:45.306Z,795.28
2018-09-06T00:12:49.426Z,795.3
2018-09-06T00:12:53.542Z,795.3
2018-09-06T00:12:57.763Z,795.32
2018-09-06T00:13:01.983Z,795.3
2018-09-06T00:13:06.101Z,795.29
2018-09-06T00:13:10.328Z,795.24
2018-09-06T00:13:14.566Z,795.29
2018-09-06T00:13:18.792Z,795.29
2018-09-06T00:13:23.022Z,795.33
2018-09-06T00:13:27.355Z,795.32
2018-09-06T00:13:31.577Z,795.24
2018-09-06T00:13:35.799Z,795.3
2018-09-06T00:13:40.129Z,795.3
2018-09-06T00:13:44.247Z,795.32
2018-09-06T00:13:48.577Z,795.29
2018-09-06T00:13:52.799Z,795.31
2018-09-06T00:13:56.971Z,795.32
2018-09-06T00:14:01.197Z,795.3
2018-09-06T00:14:05.313Z,795.27
2018-09-06T00:14:09.541Z,795.28
2018-09-06T00:14:13.912Z,795.31
2018-09-06T00:14:18.028Z,795.35
2018-09-06T00:14:22.037Z,795.34
2018-09-06T00:14:26.168Z,795.34
2018-09-06T00:14:30.387Z,795.34
2018-09-06T00:14:34.291Z,795.34
2018-09-06T00:14:38.194Z,795.37
2018-09-06T00:14:42.418Z,795.32
2018-09-06T00:14:46.436Z,795.35
2018-09-06T00:14:50.563Z,795.35
2018-09-06T00:14:54.691Z,795.33
2018-09-06T00:14:58.702Z,795.31
2018-09-06T00:15:02.932Z,795.37
2018-09-06T00:15:06.841Z,795.37
2018-09-06T00:15:11.179Z,795.31
2018-09-06T00:15:15.405Z,795.38
2018-09-06T00:15:19.525Z,795.38
2018-09-06T00:15:23.851Z,795.4
2018-09-06T00:15:27.977Z,795.39
2018-09-06T00:15:32.099Z,795.41
2018-09-06T00:15:36.319Z,795.41
2018-09-06T00:15:40.445Z,795.42
2018-09-06T00:15:44.669Z,795.41
2018-09-06T00:15:48.678Z,795.4
2018-09-06T00:15:52.803Z,795.44
2018-09-06T00:15:57.036Z,795.41
2018-09-06T00:16:00.942Z,795.42
2018-09-06T00:16:04.845Z,795.37
2018-09-06T00:16:09.175Z,795.43
2018-09-06T00:16:13.397Z,795.44
2018-09-06T00:16:17.721Z,795.44
2018-09-06T00:16:21.731Z,795.44
2018-09-06T00:16:26.220Z,795.45
2018-09-06T00:16:30.558Z,795.45
2018-09-06T00:16:34.886Z,795.46
2018-09-06T00:16:39.218Z,795.43
2018-09-06T00:16:43.440Z,795.44
2018-09-06T00:16:47.769Z,795.48
2018-09-06T00:16:51.991Z,795.48
2018-09-06T00:16:56.106Z,795.48
2018-09-06T00:17:00.245Z,795.5
2018-09-06T00:17:04.621Z,795.47
2018-09-06T00:17:08.853Z,795.51
2018-09-06T00:17:13.090Z,795.51
2018-09-06T00:17:17.208Z,795.51
2018-09-06T00:17:21.324Z,795.51
2018-09-06T00:17:25.441Z,795.49
2018-09-06T00:17:29.667Z,795.53
2018-09-06T00:17:33.888Z,795.53
2018-09-06T00:17:37.898Z,795.52
2018-09-06T00:17:42.124Z,795.54
2018-09-06T00:17:46.346Z,795.53
2018-09-06T00:17:50.360Z,795.56
2018-09-06T00:17:54.695Z,795.53
2018-09-06T00:17:58.920Z,795.52
2018-09-06T00:18:03.248Z,795.55
2018-09-06T00:18:07.582Z,795.55
2018-09-06T00:18:11.810Z,795.57
2018-09-06T00:18:15.933Z,795.57
2018-09-06T00:18:19.950Z,795.57
2018-09-06T00:18:24.279Z,795.58
2018-09-06T00:18:28.607Z,795.6
2018-09-06T00:18:32.720Z,795.6
2018-09-06T00:18:36.894Z,795.59
2018-09-06T00:18:41.117Z,795.63
2018-09-06T00:18:45.344Z,795.58
2018-09-06T00:18:49.470Z,795.6
2018-09-06T00:18:53.693Z,795.62
2018-09-06T00:18:57.920Z,795.6
2018-09-06T00:19:02.147Z,795.65
2018-09-06T00:19:06.484Z,795.62
2018-09-06T00:19:10.818Z,795.62
2018-09-06T00:19:15.042Z,795.61
2018-09-06T00:19:19.375Z,795.62
2018-09-06T00:19:23.500Z,795.63
2018-09-06T00:19:27.622Z,795.62
2018-09-06T00:19:31.844Z,795.66
2018-09-06T00:19:36.175Z,795.63
2018-09-06T00:19:40.293Z,795.64
2018-09-06T00:19:44.517Z,795.65
2018-09-06T00:19:48.745Z,795.65
2018-09-06T00:19:52.971Z,795.65
2018-09-06T00:19:57.195Z,795.66
2018-09-06T00:20:01.416Z,795.66
2018-09-06T00:20:05.637Z,795.67
2018-09-06T00:20:09.767Z,795.62
2018-09-06T00:20:13.997Z,795.67
2018-09-06T00:20:18.329Z,795.67
2018-09-06T00:20:22.549Z,795.65
2018-09-06T00:20:26.564Z,795.68
2018-09-06T00:20:30.906Z,795.65
2018-09-06T00:20:34.917Z,795.64
2018-09-06T00:20:38.930Z,795.63
2018-09-06T00:20:43.171Z,795.65
2018-09-06T00:20:47.504Z,795.62
2018-09-06T00:20:51.727Z,795.64
2018-09-06T00:20:55.952Z,795.64
2018-09-06T00:21:00.284Z,795.66
2018-09-06T00:21:04.404Z,795.65
2018-09-06T00:21:08.741Z,795.61
2018-09-06T00:21:13.072Z,795.63
2018-09-06T00:21:17.192Z,795.64
2018-09-06T00:21:21.419Z,795.62
2018-09-06T00:21:25.652Z,795.62
2018-09-06T00:21:29.984Z,795.58
2018-09-06T00:21:34.207Z,795.63
2018-09-06T00:21:38.439Z,795.55
2018-09-06T00:21:42.663Z,795.6
2018-09-06T00:21:46.800Z,795.59
2018-09-06T00:21:50.921Z,795.57
2018-09-06T00:21:55.037Z,795.57
2018-09-06T00:21:59.360Z,795.55
2018-09-06T00:22:03.628Z,795.54
2018-09-06T00:22:07.866Z,795.54
2018-09-06T00:22:12.103Z,795.54
2018-09-06T00:22:16.224Z,795.51
2018-09-06T00:22:20.447Z,795.54
2018-09-06T00:22:24.670Z,795.55
2018-09-06T00:22:28.893Z,795.51
2018-09-06T00:22:33.119Z,795.55
2018-09-06T00:22:37.352Z,795.52
2018-09-06T00:22:41.471Z,795.47
2018-09-06T00:22:45.587Z,795.47
2018-09-06T00:22:49.914Z,795.55
2018-09-06T00:22:54.143Z,795.48
2018-09-06T00:22:58.257Z,795.46
2018-09-06T00:23:02.595Z,795.51
2018-09-06T00:23:06.930Z,795.45
2018-09-06T00:23:10.970Z,795.48
2018-09-06T00:23:15.306Z,795.48
2018-09-06T00:23:19.633Z,795.47
2018-09-06T00:23:23.971Z,795.44
2018-09-06T00:23:28.317Z,795.48
2018-09-06T00:23:32.553Z,795.46
2018-09-06T00:23:36.574Z,795.46
2018-09-06T00:23:40.795Z,795.48
2018-09-06T00:23:44.911Z,795.42
2018-09-06T00:23:49.238Z,795.45
2018-09-06T00:23:53.359Z,795.44
2018-09-06T00:23:57.473Z,795.45
2018-09-06T00:24:01.798Z,795.43
2018-09-06T00:24:05.810Z,795.42
2018-09-06T00:24:10.048Z,795.4
2018-09-06T00:24:14.271Z,795.4
2018-09-06T00:24:18.501Z,795.42
2018-09-06T00:24:22.725Z,795.4
2018-09-06T00:24:26.964Z,795.39
2018-09-06T00:24:31.189Z,795.38
2018-09-06T00:24:35.580Z,795.35
2018-09-06T00:24:39.707Z,795.39
2018-09-06T00:24:44.038Z,795.37
2018-09-06T00:24:48.154Z,795.36
2018-09-06T00:24:52.408Z,795.33
2018-09-06T00:24:56.635Z,795.35
2018-09-06T00:25:00.864Z,795.33
2018-09-06T00:25:04.887Z,795.34
2018-09-06T00:25:09.112Z,795.31
2018-09-06T00:25:13.338Z,795.29
2018-09-06T00:25:17.561Z,795.29
2018-09-06T00:25:21.792Z,795.31
2018-09-06T00:25:26.023Z,795.3
2018-09-06T00:25:30.352Z,795.3
2018-09-06T00:25:34.573Z,795.27
2018-09-06T00:25:38.796Z,795.27
2018-09-06T00:25:42.918Z,795.29
2018-09-06T00:25:47.255Z,795.28
2018-09-06T00:25:51.373Z,795.23
2018-09-06T00:25:55.711Z,795.24
2018-09-06T00:26:00.045Z,795.24
2018-09-06T00:26:04.164Z,795.23
2018-09-06T00:26:08.301Z,795.23
2018-09-06T00:26:12.638Z,795.21
2018-09-06T00:26:16.965Z,795.21
2018-09-06T00:26:21.188Z,795.18
2018-09-06T00:26:25.114Z,795.19
2018-09-06T00:26:29.445Z,795.19
2018-09-06T00:26:33.566Z,795.18
2018-09-06T00:26:37.908Z,795.18
2018-09-06T00:26:42.235Z,795.19
2018-09-06T00:26:46.455Z,795.17
2018-09-06T00:26:50.799Z,795.1
2018-09-06T00:26:54.810Z,795.13
2018-09-06T00:26:59.032Z,795.13
2018-09-06T00:27:03.306Z,795.13
2018-09-06T00:27:07.631Z,795.15
2018-09-06T00:27:11.961Z,795.13
2018-09-06T00:27:16.183Z,795.09
2018-09-06T00:27:20.512Z,795.12
2018-09-06T00:27:24.739Z,795.1
2018-09-06T00:27:28.963Z,795.12
2018-09-06T00:27:32.974Z,795.11
2018-09-06T00:27:37.090Z,795.1
2018-09-06T00:27:41.312Z,795.11
2018-09-06T00:27:45.435Z,795.13
2018-09-06T00:27:49.672Z,795.09
2018-09-06T00:27:53.789Z,795.07
2018-09-06T00:27:58.114Z,795.09
2018-09-06T00:28:02.280Z,795.06
2018-09-06T00:28:06.395Z,795.07
2018-09-06T00:28:10.618Z,795.06
2018-09-06T00:28:14.944Z,795.02
2018-09-06T00:28:19.076Z,795.04
2018-09-06T00:28:23.412Z,795.01
2018-09-06T00:28:27.747Z,795.04
2018-09-06T00:28:31.970Z,795
2018-09-06T00:28:36.204Z,794.96
2018-09-06T00:28:40.430Z,794.99
2018-09-06T00:28:44.758Z,795
2018-09-06T00:28:49.090Z,794.96
2018-09-06T00:28:53.314Z,794.95
2018-09-06T00:28:57.549Z,794.95
2018-09-06T00:29:01.875Z,794.94
2018-09-06T00:29:06.163Z,794.93
2018-09-06T00:29:10.385Z,794.91
2018-09-06T00:29:46.714Z,794.8
2018-09-06T00:29:51.051Z,794.84
2018-09-06T00:29:55.172Z,794.85
2018-09-06T00:29:59.403Z,794.79
2018-09-06T00:30:03.616Z,794.83
2018-09-06T00:30:07.951Z,794.77
2018-09-06T00:30:12.071Z,794.8
2018-09-06T00:30:16.292Z,794.77
2018-09-06T00:30:20.514Z,794.77
2018-09-06T00:30:24.633Z,794.73
2018-09-06T00:30:28.852Z,794.72
2018-09-06T00:30:32.971Z,794.79
2018-09-06T00:30:37.300Z,794.74
2018-09-06T00:30:41.527Z,794.74
2018-09-06T00:30:45.752Z,794.72
2018-09-06T00:30:49.980Z,794.7
2018-09-06T00:30:54.200Z,794.71
2018-09-06T00:30:58.548Z,794.72
2018-09-06T00:31:02.827Z,794.72
2018-09-06T00:31:07.047Z,794.71
2018-09-06T00:31:11.285Z,794.69
2018-09-06T00:31:15.611Z,794.72
2018-09-06T00:31:19.952Z,794.68
2018-09-06T00:31:24.188Z,794.7
2018-09-06T00:31:28.522Z,794.67
2018-09-06T00:31:32.757Z,794.71
2018-09-06T00:31:37.084Z,794.66
2018-09-06T00:31:41.308Z,794.66
2018-09-06T00:31:45.657Z,794.64
2018-09-06T00:31:49.987Z,794.63
2018-09-06T00:31:54.210Z,794.64
2018-09-06T00:31:58.325Z,794.62
2018-09-06T00:32:02.337Z,794.62
2018-09-06T00:32:06.458Z,794.63
2018-09-06T00:32:10.691Z,794.61
2018-09-06T00:32:14.918Z,794.59
2018-09-06T00:32:19.295Z,794.59
2018-09-06T00:32:23.410Z,794.59
2018-09-06T00:32:27.747Z,794.59
2018-09-06T00:32:31.970Z,794.52
2018-09-06T00:32:36.305Z,794.59
2018-09-06T00:32:40.531Z,794.58
2018-09-06T00:32:44.781Z,794.57
2018-09-06T00:32:49.002Z,794.6
2018-09-06T00:32:53.336Z,794.56
2018-09-06T00:32:57.347Z,794.55
2018-09-06T00:33:01.675Z,794.56
2018-09-06T00:33:05.798Z,794.58
2018-09-06T00:33:10.176Z,794.57
2018-09-06T00:33:14.301Z,794.57
2018-09-06T00:33:18.525Z,794.54
2018-09-06T00:33:22.861Z,794.53
2018-09-06T00:33:27.189Z,794.55
2018-09-06T00:33:31.303Z,794.53
2018-09-06T00:33:35.530Z,794.57
2018-09-06T00:33:39.857Z,794.53
2018-09-06T00:33:43.977Z,794.53
2018-09-06T00:33:48.305Z,794.51
2018-09-06T00:33:52.527Z,794.54
2018-09-06T00:33:56.651Z,794.51
2018-09-06T00:34:00.883Z,794.51
2018-09-06T00:34:05.016Z,794.47
2018-09-06T00:34:09.133Z,794.48
2018-09-06T00:34:13.352Z,794.52
2018-09-06T00:34:17.576Z,794.51
2018-09-06T00:34:21.795Z,794.51
2018-09-06T00:34:25.908Z,794.49
2018-09-06T00:34:30.132Z,794.54
2018-09-06T00:34:34.247Z,794.49
2018-09-06T00:34:38.476Z,794.46
2018-09-06T00:34:42.806Z,794.52
2018-09-06T00:34:46.815Z,794.53
2018-09-06T00:34:51.044Z,794.46
2018-09-06T00:34:55.266Z,794.53
2018-09-06T00:34:59.486Z,794.52
2018-09-06T00:35:03.605Z,794.53
2018-09-06T00:35:07.832Z,794.49
2018-09-06T00:35:12.066Z,794.48
2018-09-06T00:35:16.398Z,794.46
2018-09-06T00:35:20.623Z,794.53
2018-09-06T00:35:24.738Z,794.51
2018-09-06T00:35:29.067Z,794.52
2018-09-06T00:35:33.290Z,794.51
2018-09-06T00:35:37.517Z,794.48
2018-09-06T00:35:41.747Z,794.5
2018-09-06T00:35:45.967Z,794.5
2018-09-06T00:35:50.197Z,794.5
2018-09-06T00:35:54.428Z,794.5
2018-09-06T00:35:58.757Z,794.49
2018-09-06T00:36:02.987Z,794.5
2018-09-06T00:36:07.104Z,794.5
2018-09-06T00:36:11.336Z,794.48
2018-09-06T00:36:15.664Z,794.49
2018-09-06T00:36:19.992Z,794.49
2018-09-06T00:36:24.323Z,794.48
2018-09-06T00:36:28.653Z,794.43
2018-09-06T00:36:32.993Z,794.5
2018-09-06T00:36:37.220Z,794.51
2018-09-06T00:36:41.445Z,794.5
2018-09-06T00:36:45.777Z,794.47
2018-09-06T00:36:49.999Z,794.48
2018-09-06T00:36:54.016Z,794.48
2018-09-06T00:36:58.141Z,794.51
2018-09-06T00:37:02.258Z,794.48
2018-09-06T00:37:06.584Z,794.49
2018-09-06T00:37:10.929Z,794.49
2018-09-06T00:37:14.939Z,794.48
2018-09-06T00:37:19.158Z,794.5
2018-09-06T00:37:23.485Z,794.48
2018-09-06T00:37:27.817Z,794.49
2018-09-06T00:37:31.936Z,794.46
2018-09-06T00:37:35.951Z,794.45
2018-09-06T00:37:40.291Z,794.46
2018-09-06T00:37:44.525Z,794.43
2018-09-06T00:37:48.749Z,794.45
2018-09-06T00:37:52.869Z,794.44
2018-09-06T00:37:56.880Z,794.45
2018-09-06T00:38:01.110Z,794.45
2018-09-06T00:38:05.235Z,794.46
2018-09-06T00:38:09.358Z,794.44
2018-09-06T00:38:13.584Z,794.41
2018-09-06T00:38:17.913Z,794.41
2018-09-06T00:38:22.238Z,794.43
2018-09-06T00:38:26.252Z,794.42
2018-09-06T00:38:30.583Z,794.47
2018-09-06T00:38:34.803Z,794.4
2018-09-06T00:38:39.022Z,794.4
2018-09-06T00:38:43.249Z,794.36
2018-09-06T00:38:47.470Z,794.41
2018-09-06T00:38:51.590Z,794.4
2018-09-06T00:38:55.920Z,794.4
2018-09-06T00:39:00.144Z,794.39
2018-09-06T00:39:04.362Z,794.39
2018-09-06T00:39:08.698Z,794.41
2018-09-06T00:39:12.977Z,794.38
2018-09-06T00:39:17.199Z,794.41
2018-09-06T00:39:21.425Z,794.38
2018-09-06T00:39:25.446Z,794.36
2018-09-06T00:39:29.348Z,794.35
2018-09-06T00:39:33.465Z,794.34
2018-09-06T00:39:37.588Z,794.34
2018-09-06T00:39:41.916Z,794.32
2018-09-06T00:39:46.142Z,794.38
2018-09-06T00:39:50.361Z,794.31
2018-09-06T00:39:54.476Z,794.31
2018-09-06T00:39:58.594Z,794.32
2018-09-06T00:40:02.713Z,794.31
2018-09-06T00:40:06.730Z,794.29
2018-09-06T00:40:10.961Z,794.31
2018-09-06T00:40:15.227Z,794.27
2018-09-06T00:40:19.550Z,794.27
2018-09-06T00:40:23.777Z,794.29
2018-09-06T00:40:28.112Z,794.29
2018-09-06T00:40:32.342Z,794.32
2018-09-06T00:40:36.455Z,794.27
2018-09-06T00:40:40.841Z,794.26
2018-09-06T00:40:45.177Z,794.28
2018-09-06T00:40:49.312Z,794.26
2018-09-06T00:40:53.428Z,794.23
2018-09-06T00:40:57.551Z,794.24
2018-09-06T00:41:01.668Z,794.19
2018-09-06T00:41:05.782Z,794.22
2018-09-06T00:41:09.921Z,794.24
2018-09-06T00:41:14.035Z,794.23
2018-09-06T00:41:18.163Z,794.19
2018-09-06T00:41:22.383Z,794.17
2018-09-06T00:41:26.604Z,794.21
2018-09-06T00:41:30.934Z,794.18
2018-09-06T00:41:35.159Z,794.16
2018-09-06T00:41:39.378Z,794.18
2018-09-06T00:41:43.597Z,794.16
2018-09-06T00:41:47.925Z,794.14
2018-09-06T00:41:52.150Z,794.15
2018-09-06T00:41:56.265Z,794.14
2018-09-06T00:42:00.275Z,794.14
2018-09-06T00:42:04.290Z,794.12
2018-09-06T00:42:08.410Z,794.12
2018-09-06T00:42:12.634Z,794.13
2018-09-06T00:42:16.867Z,794.11
2018-09-06T00:42:20.990Z,794.12
2018-09-06T00:42:25.211Z,794.09
2018-09-06T00:42:29.327Z,794.11
2018-09-06T00:42:33.658Z,794.09
2018-09-06T00:42:37.672Z,794.11
2018-09-06T00:42:41.999Z,794.03
2018-09-06T00:42:46.229Z,794.07
2018-09-06T00:42:50.502Z,794.08
2018-09-06T00:42:54.625Z,794.06
2018-09-06T00:42:58.847Z,794.07
2018-09-06T00:43:02.757Z,794.06
2018-09-06T00:43:07.087Z,794.04
2018-09-06T00:43:11.426Z,794.06
2018-09-06T00:43:15.768Z,794.06
2018-09-06T00:43:20.097Z,794.04
2018-09-06T00:43:24.430Z,794.02
2018-09-06T00:43:28.767Z,794.02
2018-09-06T00:43:33.100Z,794.01
2018-09-06T00:43:37.334Z,794.04
2018-09-06T00:43:41.659Z,794.03
2018-09-06T00:43:45.775Z,794.03
2018-09-06T00:43:50.003Z,794.04
2018-09-06T00:43:54.330Z,794.01
2018-09-06T00:43:58.339Z,794
2018-09-06T00:44:02.352Z,794.06
2018-09-06T00:44:06.364Z,794.04
2018-09-06T00:44:10.704Z,793.98
2018-09-06T00:44:14.938Z,793.99
2018-09-06T00:44:19.162Z,794.05
2018-09-06T00:44:23.396Z,794.03
2018-09-06T00:44:27.413Z,794.05
2018-09-06T00:44:31.641Z,794.06
2018-09-06T00:44:35.759Z,794.05
2018-09-06T00:44:39.875Z,794.04
2018-09-06T00:44:44.208Z,793.99
2018-09-06T00:44:48.438Z,794.04
2018-09-06T00:44:52.768Z,794.06
2018-09-06T00:44:56.992Z,794.05
2018-09-06T00:45:01.219Z,794.06
2018-09-06T00:45:05.454Z,794.01
2018-09-06T00:45:09.802Z,794.04
2018-09-06T00:45:14.032Z,793.99
2018-09-06T00:45:18.150Z,794.05
2018-09-06T00:45:22.273Z,794.04
2018-09-06T00:45:26.494Z,794.05
2018-09-06T00:45:30.720Z,794.05
2018-09-06T00:45:34.848Z,794.04
2018-09-06T00:45:39.175Z,794.04
2018-09-06T00:45:43.511Z,794.02
2018-09-06T00:45:47.749Z,794.01
2018-09-06T00:45:52.081Z,794.03
2018-09-06T00:45:56.094Z,793.98
2018-09-06T00:46:00.420Z,794.06
2018-09-06T00:46:04.693Z,794.05
2018-09-06T00:46:08.925Z,794.05
2018-09-06T00:46:13.148Z,794.05
2018-09-06T00:46:17.484Z,794.06
2018-09-06T00:46:21.718Z,794.07
2018-09-06T00:46:25.938Z,794.02
2018-09-06T00:46:30.160Z,794.05
2018-09-06T00:46:34.390Z,793.99
2018-09-06T00:46:38.623Z,794.05
2018-09-06T00:46:42.844Z,794.03
2018-09-06T00:46:46.855Z,794.06
2018-09-06T00:46:51.076Z,794.05
2018-09-06T00:46:55.205Z,794.04
2018-09-06T00:46:59.424Z,794.01
2018-09-06T00:47:03.645Z,794.02
2018-09-06T00:47:07.873Z,794.04
2018-09-06T00:47:11.996Z,794.02
2018-09-06T00:47:16.323Z,794.03
2018-09-06T00:47:20.653Z,794.07
2018-09-06T00:47:24.875Z,794.03
2018-09-06T00:47:29.096Z,793.98
2018-09-06T00:47:33.352Z,794.09
2018-09-06T00:47:37.467Z,794.07
2018-09-06T00:47:41.812Z,794.07
2018-09-06T00:47:46.144Z,794.03
2018-09-06T00:47:50.377Z,794.05
2018-09-06T00:47:54.485Z,794.04
2018-09-06T00:47:58.682Z,794.05
2018-09-06T00:48:02.988Z,794.01
2018-09-06T00:48:07.290Z,794.04
2018-09-06T00:48:11.482Z,794.05
2018-09-06T00:48:15.683Z,794.08
2018-09-06T00:48:19.877Z,794.05
2018-09-06T00:48:24.174Z,794.07
2018-09-06T00:48:28.378Z,794.08
2018-09-06T00:48:32.586Z,794.07
2018-09-06T00:48:36.780Z,794.06
2018-09-06T00:48:40.974Z,794.01
2018-09-06T00:48:45.171Z,794.01
2018-09-06T00:48:49.388Z,794.08
2018-09-06T00:48:53.695Z,794.08
2018-09-06T00:48:57.782Z,794.07
2018-09-06T00:49:01.976Z,794.09
2018-09-06T00:49:06.132Z,794.08
2018-09-06T00:49:10.429Z,794.09
2018-09-06T00:49:14.727Z,794.11
2018-09-06T00:49:18.922Z,794.12
2018-09-06T00:49:23.112Z,794.08
2018-09-06T00:49:27.103Z,794.1
2018-09-06T00:49:31.194Z,794.09
2018-09-06T00:49:35.396Z,794.1
2018-09-06T00:49:39.484Z,794.06
2018-09-06T00:49:43.786Z,794.13
2018-09-06T00:49:47.985Z,794.1
2018-09-06T00:49:51.968Z,794.12
2018-09-06T00:49:56.168Z,794.08
2018-09-06T00:50:00.261Z,794.13
2018-09-06T00:50:04.351Z,794.13
2018-09-06T00:50:08.650Z,794.12
2018-09-06T00:50:12.950Z,794.15
2018-09-06T00:50:17.037Z,794.12
2018-09-06T00:50:21.229Z,794.11
2018-09-06T00:50:25.537Z,794.17
2018-09-06T00:50:29.731Z,794.18
2018-09-06T00:50:33.821Z,794.12
2018-09-06T00:50:38.021Z,794.17
2018-09-06T00:50:42.222Z,794.17
2018-09-06T00:50:46.420Z,794.2
2018-09-06T00:50:50.505Z,794.19
2018-09-06T00:50:54.694Z,794.14
2018-09-06T00:50:58.988Z,794.19
2018-09-06T00:51:02.970Z,794.21
2018-09-06T00:51:07.060Z,794.21
2018-09-06T00:51:11.152Z,794.2
2018-09-06T00:51:15.241Z,794.21
2018-09-06T00:51:19.335Z,794.17
2018-09-06T00:51:23.319Z,794.2
2018-09-06T00:51:27.619Z,794.2
2018-09-06T00:51:31.706Z,794.21
2018-09-06T00:51:35.920Z,794.2
2018-09-06T00:51:40.013Z,794.21
2018-09-06T00:51:44.114Z,794.23
2018-09-06T00:51:48.312Z,794.2
2018-09-06T00:51:52.623Z,794.23
2018-09-06T00:51:56.712Z,794.17
2018-09-06T00:52:01.011Z,794.21
2018-09-06T00:52:05.514Z,794.22
2018-09-06T00:52:09.811Z,794.22
2018-09-06T00:52:14.109Z,794.21
2018-09-06T00:52:18.308Z,794.22
2018-09-06T00:52:22.500Z,794.23
2018-09-06T00:52:26.755Z,794.21
2018-09-06T00:52:30.737Z,794.21
2018-09-06T00:52:34.930Z,794.17
2018-09-06T00:52:39.138Z,794.23
2018-09-06T00:52:43.447Z,794.21
2018-09-06T00:52:47.752Z,794.22
2018-09-06T00:52:51.953Z,794.23
2018-09-06T00:52:55.934Z,794.21
2018-09-06T00:53:00.131Z,794.18
2018-09-06T00:53:04.326Z,794.22
2018-09-06T00:53:08.682Z,794.2
2018-09-06T00:53:12.773Z,794.23
2018-09-06T00:53:17.074Z,794.21